sensor_id;sensor_type;location;lat;lon;timestamp;pressure;altitude;pressure_sealevel;temperature;humidity
59419;BME280;45224;50.904;6.038;2023-01-26T00:00:25;100731.56;;;-1.86;97.79
59419;BME280;45224;50.904;6.038;2023-01-26T00:01:56;100721.63;;;-1.83;97.14
59419;BME280;45224;50.904;6.038;2023-01-26T00:03:26;100727.09;;;-1.77;97.70
59419;BME280;45224;50.904;6.038;2023-01-26T00:04:57;100718.91;;;-1.73;97.29
59419;BME280;45224;50.904;6.038;2023-01-26T00:06:27;100715.56;;;-1.72;97.25
59419;BME280;45224;50.904;6.038;2023-01-26T00:07:58;100706.91;;;-1.89;96.69
59419;BME280;45224;50.904;6.038;2023-01-26T00:09:28;100707.19;;;-1.84;96.90
59419;BME280;45224;50.904;6.038;2023-01-26T00:11:02;100709.13;;;-1.80;96.61
59419;BME280;45224;50.904;6.038;2023-01-26T00:12:33;100708.78;;;-1.73;96.88
59419;BME280;45224;50.904;6.038;2023-01-26T00:14:04;100700.56;;;-1.69;96.38
59419;BME280;45224;50.904;6.038;2023-01-26T00:15:35;100712.28;;;-1.71;96.38
59419;BME280;45224;50.904;6.038;2023-01-26T00:17:06;100709.81;;;-1.96;96.22
59419;BME280;45224;50.904;6.038;2023-01-26T00:18:37;100703.97;;;-1.81;96.56
59419;BME280;45224;50.904;6.038;2023-01-26T00:20:09;100706.03;;;-1.76;96.05
59419;BME280;45224;50.904;6.038;2023-01-26T00:21:39;100698.63;;;-1.73;95.86
59419;BME280;45224;50.904;6.038;2023-01-26T00:23:10;100683.22;;;-1.76;96.13
59419;BME280;45224;50.904;6.038;2023-01-26T00:24:40;100683.78;;;-1.93;96.08
59419;BME280;45224;50.904;6.038;2023-01-26T00:26:16;100683.59;;;-1.83;96.31
59419;BME280;45224;50.904;6.038;2023-01-26T00:27:47;100678.72;;;-1.80;95.83
59419;BME280;45224;50.904;6.038;2023-01-26T00:29:18;100675.81;;;-1.73;95.71
59419;BME280;45224;50.904;6.038;2023-01-26T00:30:49;100668.00;;;-1.76;95.93
59419;BME280;45224;50.904;6.038;2023-01-26T00:32:20;100661.94;;;-1.78;95.60
59419;BME280;45224;50.904;6.038;2023-01-26T00:33:53;100668.78;;;-1.90;95.90
59419;BME280;45224;50.904;6.038;2023-01-26T00:35:24;100675.31;;;-1.80;96.30
59419;BME280;45224;50.904;6.038;2023-01-26T00:36:54;100674.59;;;-1.78;96.45
59419;BME280;45224;50.904;6.038;2023-01-26T00:38:25;100663.50;;;-1.80;96.13
59419;BME280;45224;50.904;6.038;2023-01-26T00:39:55;100672.69;;;-1.82;96.68
59419;BME280;45224;50.904;6.038;2023-01-26T00:41:27;100666.72;;;-1.83;97.08
59419;BME280;45224;50.904;6.038;2023-01-26T00:43:16;100665.84;;;-1.83;97.09
59419;BME280;45224;50.904;6.038;2023-01-26T00:44:47;100657.47;;;-1.82;97.60
59419;BME280;45224;50.904;6.038;2023-01-26T00:46:18;100657.88;;;-1.76;97.21
59419;BME280;45224;50.904;6.038;2023-01-26T00:47:48;100662.03;;;-1.76;97.10
59419;BME280;45224;50.904;6.038;2023-01-26T00:49:19;100652.78;;;-1.76;96.92
59419;BME280;45224;50.904;6.038;2023-01-26T00:50:50;100649.66;;;-1.72;96.98
59419;BME280;45224;50.904;6.038;2023-01-26T00:52:21;100643.13;;;-1.81;97.42
59419;BME280;45224;50.904;6.038;2023-01-26T00:53:54;100643.31;;;-1.78;97.95
59419;BME280;45224;50.904;6.038;2023-01-26T00:55:25;100646.72;;;-1.78;97.98
59419;BME280;45224;50.904;6.038;2023-01-26T00:57:03;100629.47;;;-1.84;98.03
59419;BME280;45224;50.904;6.038;2023-01-26T00:58:33;100635.63;;;-1.80;98.30
59419;BME280;45224;50.904;6.038;2023-01-26T01:00:05;100636.88;;;-1.87;98.47
59419;BME280;45224;50.904;6.038;2023-01-26T01:01:36;100632.69;;;-1.86;98.85
59419;BME280;45224;50.904;6.038;2023-01-26T01:03:07;100634.03;;;-1.78;98.79
59419;BME280;45224;50.904;6.038;2023-01-26T01:04:37;100621.97;;;-1.82;98.83
59419;BME280;45224;50.904;6.038;2023-01-26T01:06:08;100627.03;;;-1.82;98.69
59419;BME280;45224;50.904;6.038;2023-01-26T01:07:38;100609.31;;;-1.95;98.84
59419;BME280;45224;50.904;6.038;2023-01-26T01:09:09;100627.53;;;-1.88;99.63
59419;BME280;45224;50.904;6.038;2023-01-26T01:10:40;100616.81;;;-1.97;99.71
59419;BME280;45224;50.904;6.038;2023-01-26T01:12:10;100625.59;;;-1.92;99.82
59419;BME280;45224;50.904;6.038;2023-01-26T01:13:41;100624.44;;;-1.97;99.89
59419;BME280;45224;50.904;6.038;2023-01-26T01:15:12;100620.31;;;-1.95;99.75
59419;BME280;45224;50.904;6.038;2023-01-26T01:16:43;100619.25;;;-1.98;100.00
59419;BME280;45224;50.904;6.038;2023-01-26T01:18:17;100622.16;;;-1.92;99.99
59419;BME280;45224;50.904;6.038;2023-01-26T01:19:49;100598.97;;;-1.98;100.00
59419;BME280;45224;50.904;6.038;2023-01-26T01:21:23;100625.69;;;-1.90;100.00
59419;BME280;45224;50.904;6.038;2023-01-26T01:22:56;100617.88;;;-1.93;100.00
59419;BME280;45224;50.904;6.038;2023-01-26T01:24:27;100611.44;;;-1.88;100.00
59419;BME280;45224;50.904;6.038;2023-01-26T01:25:58;100611.47;;;-2.02;100.00
59419;BME280;45224;50.904;6.038;2023-01-26T01:27:30;100610.19;;;-1.95;100.00
59419;BME280;45224;50.904;6.038;2023-01-26T01:29:01;100608.41;;;-1.96;100.00
59419;BME280;45224;50.904;6.038;2023-01-26T01:30:31;100604.50;;;-1.91;100.00
59419;BME280;45224;50.904;6.038;2023-01-26T01:32:02;100612.91;;;-1.92;100.00
59419;BME280;45224;50.904;6.038;2023-01-26T01:33:33;100596.34;;;-2.00;100.00
59419;BME280;45224;50.904;6.038;2023-01-26T01:35:04;100610.97;;;-1.96;100.00
59419;BME280;45224;50.904;6.038;2023-01-26T01:36:35;100602.69;;;-1.93;100.00
59419;BME280;45224;50.904;6.038;2023-01-26T01:38:06;100606.38;;;-1.88;100.00
59419;BME280;45224;50.904;6.038;2023-01-26T01:39:36;100591.94;;;-1.89;100.00
59419;BME280;45224;50.904;6.038;2023-01-26T01:41:07;100601.31;;;-1.88;100.00
59419;BME280;45224;50.904;6.038;2023-01-26T01:42:45;100598.00;;;-1.87;100.00
59419;BME280;45224;50.904;6.038;2023-01-26T01:44:23;100601.31;;;-1.88;100.00
59419;BME280;45224;50.904;6.038;2023-01-26T01:45:55;100600.63;;;-1.86;100.00
59419;BME280;45224;50.904;6.038;2023-01-26T01:47:26;100591.16;;;-1.88;100.00
59419;BME280;45224;50.904;6.038;2023-01-26T01:49:25;100598.69;;;-1.90;100.00
59419;BME280;45224;50.904;6.038;2023-01-26T01:51:03;100594.47;;;-1.89;100.00
59419;BME280;45224;50.904;6.038;2023-01-26T01:52:35;100590.41;;;-1.87;100.00
59419;BME280;45224;50.904;6.038;2023-01-26T01:54:14;100585.31;;;-1.87;100.00
59419;BME280;45224;50.904;6.038;2023-01-26T01:55:45;100578.09;;;-1.94;100.00
59419;BME280;45224;50.904;6.038;2023-01-26T01:57:23;100589.22;;;-1.92;100.00
59419;BME280;45224;50.904;6.038;2023-01-26T01:58:58;100588.91;;;-1.84;100.00
59419;BME280;45224;50.904;6.038;2023-01-26T02:00:30;100593.03;;;-1.86;100.00
59419;BME280;45224;50.904;6.038;2023-01-26T02:02:00;100594.88;;;-1.83;100.00
59419;BME280;45224;50.904;6.038;2023-01-26T02:03:33;100591.84;;;-1.77;100.00
59419;BME280;45224;50.904;6.038;2023-01-26T02:05:14;100584.72;;;-1.83;100.00
59419;BME280;45224;50.904;6.038;2023-01-26T02:06:52;100585.69;;;-1.81;100.00
59419;BME280;45224;50.904;6.038;2023-01-26T02:08:29;100582.75;;;-1.74;100.00
59419;BME280;45224;50.904;6.038;2023-01-26T02:10:01;100581.38;;;-1.69;100.00
59419;BME280;45224;50.904;6.038;2023-01-26T02:11:51;100575.63;;;-1.66;100.00
59419;BME280;45224;50.904;6.038;2023-01-26T02:13:22;100584.97;;;-1.65;100.00
59419;BME280;45224;50.904;6.038;2023-01-26T02:14:53;100585.69;;;-1.68;100.00
59419;BME280;45224;50.904;6.038;2023-01-26T02:16:27;100586.94;;;-1.61;100.00
59419;BME280;45224;50.904;6.038;2023-01-26T02:18:00;100581.88;;;-1.61;100.00
59419;BME280;45224;50.904;6.038;2023-01-26T02:21:17;100576.97;;;-1.58;99.91
59419;BME280;45224;50.904;6.038;2023-01-26T02:24:44;100577.06;;;-1.56;100.00
59419;BME280;45224;50.904;6.038;2023-01-26T02:26:18;100581.53;;;-1.52;100.00
59419;BME280;45224;50.904;6.038;2023-01-26T02:27:50;100576.66;;;-1.49;99.81
59419;BME280;45224;50.904;6.038;2023-01-26T02:29:21;100578.22;;;-1.51;100.00
59419;BME280;45224;50.904;6.038;2023-01-26T02:30:53;100570.91;;;-1.60;100.00
59419;BME280;45224;50.904;6.038;2023-01-26T02:32:23;100573.53;;;-1.45;99.81
59419;BME280;45224;50.904;6.038;2023-01-26T02:33:54;100567.47;;;-1.47;99.58
59419;BME280;45224;50.904;6.038;2023-01-26T02:35:25;100569.22;;;-1.46;99.72
59419;BME280;45224;50.904;6.038;2023-01-26T02:36:58;100564.25;;;-1.44;99.40
59419;BME280;45224;50.904;6.038;2023-01-26T02:40:54;100568.47;;;-1.45;99.75
59419;BME280;45224;50.904;6.038;2023-01-26T02:42:25;100567.56;;;-1.45;99.02
59419;BME280;45224;50.904;6.038;2023-01-26T02:44:09;100558.13;;;-1.48;99.41
59419;BME280;45224;50.904;6.038;2023-01-26T02:45:42;100564.84;;;-1.49;99.65
59419;BME280;45224;50.904;6.038;2023-01-26T02:47:17;100556.38;;;-1.49;99.80
59419;BME280;45224;50.904;6.038;2023-01-26T02:48:50;100561.63;;;-1.46;99.20
59419;BME280;45224;50.904;6.038;2023-01-26T02:50:39;100551.91;;;-1.53;99.14
59419;BME280;45224;50.904;6.038;2023-01-26T02:52:10;100554.88;;;-1.45;99.30
59419;BME280;45224;50.904;6.038;2023-01-26T02:53:40;100563.56;;;-1.42;99.24
59419;BME280;45224;50.904;6.038;2023-01-26T02:55:11;100563.38;;;-1.45;99.19
59419;BME280;45224;50.904;6.038;2023-01-26T02:57:01;100557.88;;;-1.38;99.68
59419;BME280;45224;50.904;6.038;2023-01-26T02:58:32;100557.13;;;-1.37;99.85
59419;BME280;45224;50.904;6.038;2023-01-26T03:00:04;100543.63;;;-1.36;99.30
59419;BME280;45224;50.904;6.038;2023-01-26T03:01:35;100556.69;;;-1.30;98.84
59419;BME280;45224;50.904;6.038;2023-01-26T03:03:18;100534.38;;;-1.35;99.24
59419;BME280;45224;50.904;6.038;2023-01-26T03:04:50;100545.47;;;-1.33;98.88
59419;BME280;45224;50.904;6.038;2023-01-26T03:06:20;100543.81;;;-1.33;98.55
59419;BME280;45224;50.904;6.038;2023-01-26T03:07:51;100542.84;;;-1.35;98.63
59419;BME280;45224;50.904;6.038;2023-01-26T03:09:23;100546.44;;;-1.31;98.98
59419;BME280;45224;50.904;6.038;2023-01-26T03:10:55;100556.69;;;-1.30;98.79
59419;BME280;45224;50.904;6.038;2023-01-26T03:12:26;100547.16;;;-1.34;98.47
59419;BME280;45224;50.904;6.038;2023-01-26T03:13:57;100548.59;;;-1.37;98.44
59419;BME280;45224;50.904;6.038;2023-01-26T03:15:27;100542.84;;;-1.35;98.96
59419;BME280;45224;50.904;6.038;2023-01-26T03:17:12;100541.28;;;-1.33;98.79
59419;BME280;45224;50.904;6.038;2023-01-26T03:18:42;100548.88;;;-1.33;99.15
59419;BME280;45224;50.904;6.038;2023-01-26T03:20:31;100540.50;;;-1.32;98.92
59419;BME280;45224;50.904;6.038;2023-01-26T03:22:20;100540.41;;;-1.33;98.85
59419;BME280;45224;50.904;6.038;2023-01-26T03:24:26;100532.34;;;-1.41;98.70
59419;BME280;45224;50.904;6.038;2023-01-26T03:26:15;100543.81;;;-1.33;98.89
59419;BME280;45224;50.904;6.038;2023-01-26T03:28:04;100548.88;;;-1.33;98.99
59419;BME280;45224;50.904;6.038;2023-01-26T03:29:36;100532.78;;;-1.33;98.74
59419;BME280;45224;50.904;6.038;2023-01-26T03:31:06;100535.63;;;-1.29;98.82
59419;BME280;45224;50.904;6.038;2023-01-26T03:32:37;100534.03;;;-1.26;98.73
59419;BME280;45224;50.904;6.038;2023-01-26T03:34:11;100541.66;;;-1.26;98.67
59419;BME280;45224;50.904;6.038;2023-01-26T03:35:43;100537.53;;;-1.24;98.75
59419;BME280;45224;50.904;6.038;2023-01-26T03:37:13;100535.81;;;-1.25;98.48
59419;BME280;45224;50.904;6.038;2023-01-26T03:38:53;100537.38;;;-1.27;98.70
59419;BME280;45224;50.904;6.038;2023-01-26T03:40:25;100539.28;;;-1.23;98.63
59419;BME280;45224;50.904;6.038;2023-01-26T03:42:14;100532.41;;;-1.26;98.93
59419;BME280;45224;50.904;6.038;2023-01-26T03:44:03;100531.69;;;-1.23;99.03
59419;BME280;45224;50.904;6.038;2023-01-26T03:45:53;100526.50;;;-1.25;98.78
59419;BME280;45224;50.904;6.038;2023-01-26T03:47:42;100524.25;;;-1.20;98.57
59419;BME280;45224;50.904;6.038;2023-01-26T03:49:33;100521.81;;;-1.19;98.56
59419;BME280;45224;50.904;6.038;2023-01-26T03:51:23;100527.94;;;-1.15;98.32
59419;BME280;45224;50.904;6.038;2023-01-26T03:53:17;100527.75;;;-1.18;98.59
59419;BME280;45224;50.904;6.038;2023-01-26T03:55:08;100520.13;;;-1.18;98.43
59419;BME280;45224;50.904;6.038;2023-01-26T03:56:57;100526.28;;;-1.15;98.67
59419;BME280;45224;50.904;6.038;2023-01-26T03:58:28;100522.16;;;-1.13;98.59
59419;BME280;45224;50.904;6.038;2023-01-26T04:00:00;100520.59;;;-1.11;98.26
59419;BME280;45224;50.904;6.038;2023-01-26T04:01:31;100520.13;;;-1.18;97.85
59419;BME280;45224;50.904;6.038;2023-01-26T04:03:02;100525.47;;;-1.14;97.62
59419;BME280;45224;50.904;6.038;2023-01-26T04:04:51;100524.44;;;-1.17;97.71
59419;BME280;45224;50.904;6.038;2023-01-26T04:06:44;100522.50;;;-1.21;97.86
59419;BME280;45224;50.904;6.038;2023-01-26T04:08:33;100512.00;;;-1.27;97.75
59419;BME280;45224;50.904;6.038;2023-01-26T04:10:06;100506.75;;;-1.31;98.27
59419;BME280;45224;50.904;6.038;2023-01-26T04:11:37;100507.78;;;-1.42;98.51
59419;BME280;45224;50.904;6.038;2023-01-26T04:13:08;100500.56;;;-1.49;98.61
59419;BME280;45224;50.904;6.038;2023-01-26T04:15:04;100510.91;;;-1.46;98.89
59419;BME280;45224;50.904;6.038;2023-01-26T04:16:53;100516.94;;;-1.44;98.89
59419;BME280;45224;50.904;6.038;2023-01-26T04:18:42;100511.28;;;-1.40;98.73
59419;BME280;45224;50.904;6.038;2023-01-26T04:20:33;100534.66;;;-1.31;98.57
59419;BME280;45224;50.904;6.038;2023-01-26T04:22:23;100535.63;;;-1.29;98.21
59419;BME280;45224;50.904;6.038;2023-01-26T04:23:54;100532.13;;;-1.31;98.00
59419;BME280;45224;50.904;6.038;2023-01-26T04:25:28;100537.38;;;-1.27;98.29
59419;BME280;45224;50.904;6.038;2023-01-26T04:27:00;100532.31;;;-1.27;98.48
59419;BME280;45224;50.904;6.038;2023-01-26T04:28:42;100536.56;;;-1.26;98.62
59419;BME280;45224;50.904;6.038;2023-01-26T04:30:14;100536.66;;;-1.25;98.78
59419;BME280;45224;50.904;6.038;2023-01-26T04:31:45;100537.28;;;-1.29;99.35
59419;BME280;45224;50.904;6.038;2023-01-26T04:33:19;100530.78;;;-1.39;99.80
59419;BME280;45224;50.904;6.038;2023-01-26T04:34:50;100532.41;;;-1.26;99.81
59419;BME280;45224;50.904;6.038;2023-01-26T04:36:25;100534.41;;;-1.20;99.27
59419;BME280;45224;50.904;6.038;2023-01-26T04:37:55;100525.03;;;-1.21;99.30
59419;BME280;45224;50.904;6.038;2023-01-26T04:39:27;100528.81;;;-1.15;99.05
59419;BME280;45224;50.904;6.038;2023-01-26T04:41:00;100530.38;;;-1.17;98.73
59419;BME280;45224;50.904;6.038;2023-01-26T04:42:35;100534.59;;;-1.17;98.80
59419;BME280;45224;50.904;6.038;2023-01-26T04:44:08;100528.59;;;-1.33;99.14
59419;BME280;45224;50.904;6.038;2023-01-26T04:45:38;100522.31;;;-1.24;99.43
59419;BME280;45224;50.904;6.038;2023-01-26T04:47:09;100530.28;;;-1.18;99.40
59419;BME280;45224;50.904;6.038;2023-01-26T04:48:41;100524.25;;;-1.20;99.26
59419;BME280;45224;50.904;6.038;2023-01-26T04:50:12;100522.84;;;-1.15;99.68
59419;BME280;45224;50.904;6.038;2023-01-26T04:51:42;100523.19;;;-1.24;99.61
59419;BME280;45224;50.904;6.038;2023-01-26T04:53:13;100524.44;;;-1.17;99.76
59419;BME280;45224;50.904;6.038;2023-01-26T04:54:44;100519.53;;;-1.14;99.31
59419;BME280;45224;50.904;6.038;2023-01-26T04:56:29;100512.53;;;-1.18;99.84
59419;BME280;45224;50.904;6.038;2023-01-26T04:58:02;100512.00;;;-1.27;100.00
59419;BME280;45224;50.904;6.038;2023-01-26T04:59:33;100518.50;;;-1.18;100.00
59419;BME280;45224;50.904;6.038;2023-01-26T05:01:04;100524.63;;;-1.14;99.43
59419;BME280;45224;50.904;6.038;2023-01-26T05:02:35;100520.59;;;-1.11;99.66
59419;BME280;45224;50.904;6.038;2023-01-26T05:04:07;100527.63;;;-1.06;99.34
59419;BME280;45224;50.904;6.038;2023-01-26T05:05:39;100529.34;;;-1.05;99.47
59419;BME280;45224;50.904;6.038;2023-01-26T05:07:09;100518.31;;;-1.06;99.71
59419;BME280;45224;50.904;6.038;2023-01-26T05:08:41;100522.63;;;-1.05;99.65
59419;BME280;45224;50.904;6.038;2023-01-26T05:10:12;100521.81;;;-1.04;99.63
59419;BME280;45224;50.904;6.038;2023-01-26T05:12:08;100516.94;;;-1.01;99.03
59419;BME280;45224;50.904;6.038;2023-01-26T05:14:15;100521.22;;;-1.00;99.47
59419;BME280;45224;50.904;6.038;2023-01-26T05:16:05;100520.25;;;-1.02;99.48
59419;BME280;45224;50.904;6.038;2023-01-26T05:17:57;100520.41;;;-0.99;99.45
59419;BME280;45224;50.904;6.038;2023-01-26T05:19:57;100515.34;;;-0.99;99.73
59419;BME280;45224;50.904;6.038;2023-01-26T05:21:43;100515.34;;;-0.99;99.78
59419;BME280;45224;50.904;6.038;2023-01-26T05:23:13;100522.97;;;-0.99;99.59
59419;BME280;45224;50.904;6.038;2023-01-26T05:25:04;100523.84;;;-0.98;99.26
59419;BME280;45224;50.904;6.038;2023-01-26T05:26:42;100519.34;;;-1.17;99.60
59419;BME280;45224;50.904;6.038;2023-01-26T05:28:17;100522.44;;;-1.08;100.00
59419;BME280;45224;50.904;6.038;2023-01-26T05:29:49;100517.28;;;-1.09;99.89
59419;BME280;45224;50.904;6.038;2023-01-26T05:31:19;100512.69;;;-1.15;100.00
59419;BME280;45224;50.904;6.038;2023-01-26T05:32:51;100519.91;;;-1.08;99.60
59419;BME280;45224;50.904;6.038;2023-01-26T05:34:21;100514.56;;;-1.13;99.93
59419;BME280;45224;50.904;6.038;2023-01-26T05:35:52;100510.44;;;-1.11;100.00
59419;BME280;45224;50.904;6.038;2023-01-26T05:37:27;100514.56;;;-1.13;100.00
59419;BME280;45224;50.904;6.038;2023-01-26T05:38:58;100523.22;;;-1.09;100.00
59419;BME280;45224;50.904;6.038;2023-01-26T05:40:30;100516.06;;;-1.16;100.00
59419;BME280;45224;50.904;6.038;2023-01-26T05:42:01;100524.09;;;-1.08;100.00
59419;BME280;45224;50.904;6.038;2023-01-26T05:43:50;100521.63;;;-1.07;100.00
59419;BME280;45224;50.904;6.038;2023-01-26T05:45:39;100523.59;;;-1.03;100.00
59419;BME280;45224;50.904;6.038;2023-01-26T05:47:10;100522.88;;;-1.00;100.00
59419;BME280;45224;50.904;6.038;2023-01-26T05:48:41;100527.78;;;-1.03;100.00
59419;BME280;45224;50.904;6.038;2023-01-26T05:50:12;100520.31;;;-1.00;100.00
59419;BME280;45224;50.904;6.038;2023-01-26T05:51:43;100523.94;;;-0.97;100.00
59419;BME280;45224;50.904;6.038;2023-01-26T05:53:14;100525.69;;;-0.96;100.00
59419;BME280;45224;50.904;6.038;2023-01-26T05:54:45;100532.59;;;-0.93;100.00
59419;BME280;45224;50.904;6.038;2023-01-26T05:56:15;100517.28;;;-0.95;100.00
59419;BME280;45224;50.904;6.038;2023-01-26T05:57:51;100527.44;;;-0.95;100.00
59419;BME280;45224;50.904;6.038;2023-01-26T05:59:22;100529.88;;;-0.96;100.00
59419;BME280;45224;50.904;6.038;2023-01-26T06:00:52;100522.19;;;-0.98;100.00
59419;BME280;45224;50.904;6.038;2023-01-26T06:02:29;100526.47;;;-0.97;100.00
59419;BME280;45224;50.904;6.038;2023-01-26T06:03:59;100529.19;;;-0.94;100.00
59419;BME280;45224;50.904;6.038;2023-01-26T06:05:36;100525.84;;;-0.93;100.00
59419;BME280;45224;50.904;6.038;2023-01-26T06:07:15;100527.63;;;-0.92;100.00
59419;BME280;45224;50.904;6.038;2023-01-26T06:09:06;100527.63;;;-0.92;100.00
59419;BME280;45224;50.904;6.038;2023-01-26T06:10:36;100531.97;;;-0.89;100.00
59419;BME280;45224;50.904;6.038;2023-01-26T06:12:22;100529.53;;;-0.87;100.00
59419;BME280;45224;50.904;6.038;2023-01-26T06:13:59;100535.41;;;-0.88;100.00
59419;BME280;45224;50.904;6.038;2023-01-26T06:15:31;100527.16;;;-0.84;100.00
59419;BME280;45224;50.904;6.038;2023-01-26T06:17:01;100533.16;;;-0.84;100.00
59419;BME280;45224;50.904;6.038;2023-01-26T06:18:32;100527.88;;;-0.87;100.00
59419;BME280;45224;50.904;6.038;2023-01-26T06:20:05;100542.50;;;-0.83;100.00
59419;BME280;45224;50.904;6.038;2023-01-26T06:21:36;100533.22;;;-0.82;100.00
59419;BME280;45224;50.904;6.038;2023-01-26T06:23:07;100542.59;;;-0.81;100.00
59419;BME280;45224;50.904;6.038;2023-01-26T06:24:41;100542.50;;;-0.83;100.00
59419;BME280;45224;50.904;6.038;2023-01-26T06:26:13;100533.22;;;-0.82;100.00
59419;BME280;45224;50.904;6.038;2023-01-26T06:27:45;100527.25;;;-0.83;100.00
59419;BME280;45224;50.904;6.038;2023-01-26T06:29:28;100531.03;;;-0.76;100.00
59419;BME280;45224;50.904;6.038;2023-01-26T06:31:01;100534.38;;;-0.77;100.00
59419;BME280;45224;50.904;6.038;2023-01-26T06:32:32;100538.81;;;-0.73;100.00
59419;BME280;45224;50.904;6.038;2023-01-26T06:34:03;100536.38;;;-0.71;100.00
59419;BME280;45224;50.904;6.038;2023-01-26T06:35:35;100544.06;;;-0.70;100.00
59419;BME280;45224;50.904;6.038;2023-01-26T06:37:08;100547.44;;;-0.71;100.00
59419;BME280;45224;50.904;6.038;2023-01-26T06:38:49;100546.72;;;-0.68;100.00
59419;BME280;45224;50.904;6.038;2023-01-26T06:40:21;100548.38;;;-0.69;100.00
59419;BME280;45224;50.904;6.038;2023-01-26T06:41:53;100545.03;;;-0.68;100.00
59419;BME280;45224;50.904;6.038;2023-01-26T06:43:23;100548.56;;;-0.66;100.00
59419;BME280;45224;50.904;6.038;2023-01-26T06:44:54;100543.47;;;-0.66;100.00
59419;BME280;45224;50.904;6.038;2023-01-26T06:46:26;100537.59;;;-0.65;100.00
59419;BME280;45224;50.904;6.038;2023-01-26T06:47:58;100552.13;;;-0.62;100.00
59419;BME280;45224;50.904;6.038;2023-01-26T06:49:29;100543.56;;;-0.64;100.00
59419;BME280;45224;50.904;6.038;2023-01-26T06:52:55;100555.63;;;-0.60;100.00
59419;BME280;45224;50.904;6.038;2023-01-26T06:54:49;100549.69;;;-0.61;100.00
59419;BME280;45224;50.904;6.038;2023-01-26T06:56:46;100551.44;;;-0.60;100.00
59419;BME280;45224;50.904;6.038;2023-01-26T06:58:43;100553.19;;;-0.59;100.00
59419;BME280;45224;50.904;6.038;2023-01-26T07:00:29;100551.44;;;-0.60;100.00
59419;BME280;45224;50.904;6.038;2023-01-26T07:02:18;100554.00;;;-0.60;100.00
59419;BME280;45224;50.904;6.038;2023-01-26T07:03:51;100546.50;;;-0.57;100.00
59419;BME280;45224;50.904;6.038;2023-01-26T07:05:22;100549.88;;;-0.58;100.00
59419;BME280;45224;50.904;6.038;2023-01-26T07:06:52;100548.19;;;-0.57;100.00
59419;BME280;45224;50.904;6.038;2023-01-26T07:08:23;100543.75;;;-0.61;100.00
59419;BME280;45224;50.904;6.038;2023-01-26T07:09:53;100543.19;;;-0.56;100.00
59419;BME280;45224;50.904;6.038;2023-01-26T07:11:24;100556.84;;;-0.53;100.00
59419;BME280;45224;50.904;6.038;2023-01-26T07:12:55;100553.53;;;-0.52;100.00
59419;BME280;45224;50.904;6.038;2023-01-26T07:14:25;100555.91;;;-0.56;100.00
59419;BME280;45224;50.904;6.038;2023-01-26T07:16:04;100555.13;;;-0.54;100.00
59419;BME280;45224;50.904;6.038;2023-01-26T07:17:34;100551.59;;;-0.57;100.00
59419;BME280;45224;50.904;6.038;2023-01-26T07:19:05;100546.97;;;-0.64;100.00
59419;BME280;45224;50.904;6.038;2023-01-26T07:20:36;100561.53;;;-0.61;100.00
59419;BME280;45224;50.904;6.038;2023-01-26T07:22:06;100549.50;;;-0.64;100.00
59419;BME280;45224;50.904;6.038;2023-01-26T07:23:37;100546.28;;;-0.61;100.00
59419;BME280;45224;50.904;6.038;2023-01-26T07:25:08;100550.81;;;-0.56;100.00
59419;BME280;45224;50.904;6.038;2023-01-26T07:26:38;100551.00;;;-0.52;100.00
59419;BME280;45224;50.904;6.038;2023-01-26T07:28:09;100548.28;;;-0.56;100.00
59419;BME280;45224;50.904;6.038;2023-01-26T07:29:40;100557.84;;;-0.51;100.00
59419;BME280;45224;50.904;6.038;2023-01-26T07:31:11;100550.22;;;-0.51;100.00
59419;BME280;45224;50.904;6.038;2023-01-26T07:32:42;100553.53;;;-0.52;100.00
59419;BME280;45224;50.904;6.038;2023-01-26T07:34:13;100553.53;;;-0.52;100.00
59419;BME280;45224;50.904;6.038;2023-01-26T07:35:43;100558.72;;;-0.51;100.00
59419;BME280;45224;50.904;6.038;2023-01-26T07:37:14;100552.84;;;-0.50;100.00
59419;BME280;45224;50.904;6.038;2023-01-26T07:38:44;100552.03;;;-0.49;100.00
59419;BME280;45224;50.904;6.038;2023-01-26T07:40:15;100559.47;;;-0.52;100.00
59419;BME280;45224;50.904;6.038;2023-01-26T07:41:45;100561.50;;;-0.46;100.00
59419;BME280;45224;50.904;6.038;2023-01-26T07:43:32;100568.28;;;-0.47;100.00
59419;BME280;45224;50.904;6.038;2023-01-26T07:45:03;100563.34;;;-0.59;100.00
59419;BME280;45224;50.904;6.038;2023-01-26T07:46:34;100573.00;;;-0.53;100.00
59419;BME280;45224;50.904;6.038;2023-01-26T07:48:04;100569.31;;;-0.58;100.00
59419;BME280;45224;50.904;6.038;2023-01-26T07:49:35;100564.47;;;-0.53;100.00
59419;BME280;45224;50.904;6.038;2023-01-26T07:51:05;100574.03;;;-0.49;100.00
59419;BME280;45224;50.904;6.038;2023-01-26T07:52:38;100561.94;;;-0.53;100.00
59419;BME280;45224;50.904;6.038;2023-01-26T07:54:09;100563.88;;;-0.49;100.00
59419;BME280;45224;50.904;6.038;2023-01-26T07:55:40;100565.78;;;-0.45;100.00
59419;BME280;45224;50.904;6.038;2023-01-26T07:57:14;100570.19;;;-0.43;100.00
59419;BME280;45224;50.904;6.038;2023-01-26T07:58:48;100567.53;;;-0.44;100.00
59419;BME280;45224;50.904;6.038;2023-01-26T08:00:19;100573.25;;;-0.48;100.00
59419;BME280;45224;50.904;6.038;2023-01-26T08:01:49;100563.88;;;-0.49;100.00
59419;BME280;45224;50.904;6.038;2023-01-26T08:03:23;100566.59;;;-0.46;100.00
59419;BME280;45224;50.904;6.038;2023-01-26T08:04:53;100575.81;;;-0.48;100.00
59419;BME280;45224;50.904;6.038;2023-01-26T08:06:24;100571.41;;;-0.51;100.00
59419;BME280;45224;50.904;6.038;2023-01-26T08:07:58;100579.47;;;-0.43;100.00
59419;BME280;45224;50.904;6.038;2023-01-26T08:09:29;100578.25;;;-0.50;100.00
59419;BME280;45224;50.904;6.038;2023-01-26T08:11:00;100576.75;;;-0.46;100.00
59419;BME280;45224;50.904;6.038;2023-01-26T08:12:33;100582.00;;;-0.43;100.00
59419;BME280;45224;50.904;6.038;2023-01-26T08:14:04;100582.97;;;-0.41;100.00
59419;BME280;45224;50.904;6.038;2023-01-26T08:15:34;100577.09;;;-0.40;100.00
59419;BME280;45224;50.904;6.038;2023-01-26T08:17:05;100585.69;;;-0.38;100.00
59419;BME280;45224;50.904;6.038;2023-01-26T08:18:35;100581.38;;;-0.39;100.00
59419;BME280;45224;50.904;6.038;2023-01-26T08:20:07;100582.78;;;-0.44;100.00